Аэропорт: Гумрак. Волгоград

ICAO: URWW

METAR:
2019-09-16 01:00:00
URWW 160100Z 22002MPS CAVOK 09/02 Q1018 R06/010070 NOSIG
METAR:
2019-09-15 23:00:00
TAF URWW 152300Z 1600/1609 23003G10MPS 9999 BKN030 TEMPO 1600/1603 20003G10MPS BECMG 1603/1605 23009G14MPS